Time;durP1;ratioP1;P1;durP2;ratioP2;P2;SDS_P1;SDS_P2;PMS_P1;PMS_P2;Temp;Humidity;BMP_temperature;BMP_pressure;BME280_temperature;BME280_humidity;BME280_pressure;Samples;Min_cycle;Max_cycle;Signal;HPM_P1;HPM_P2
2023/03/10 00:00:12;;;;;;;2.05;0.80;;;11.40;99.90;;;;;;5063213;28;20037;-76
2023/03/10 00:02:45;;;;;;;6.75;1.73;;;11.40;99.90;;;;;;5063597;28;20028;-76
2023/03/10 00:05:11;;;;;;;2.47;0.50;;;11.40;99.90;;;;;;5058041;28;20048;-76
2023/03/10 00:07:37;;;;;;;1.52;0.70;;;11.40;99.90;;;;;;5062260;28;20028;-77
2023/03/10 00:10:04;;;;;;;2.13;0.70;;;11.40;99.90;;;;;;5060811;28;20047;-76
2023/03/10 00:12:30;;;;;;;0.98;0.32;;;11.30;99.90;;;;;;5062472;28;20041;-76
2023/03/10 00:14:56;;;;;;;3.05;0.70;;;11.30;99.90;;;;;;5060174;28;20037;-76
2023/03/10 00:17:22;;;;;;;2.75;0.50;;;11.40;99.90;;;;;;5061910;28;20029;-77
2023/03/10 00:19:48;;;;;;;3.38;0.95;;;11.30;99.90;;;;;;5061171;28;20052;-76
2023/03/10 00:22:14;;;;;;;0.63;0.38;;;11.30;99.90;;;;;;5078241;28;20037;-76
2023/03/10 00:24:41;;;;;;;4.53;0.75;;;11.30;99.90;;;;;;5057909;28;20359;-76
2023/03/10 00:27:07;;;;;;;2.30;0.40;;;11.30;99.90;;;;;;5062302;28;20036;-75
2023/03/10 00:29:33;;;;;;;2.10;0.50;;;11.30;99.90;;;;;;5061000;28;20082;-77
2023/03/10 00:32:01;;;;;;;0.50;0.40;;;11.30;99.90;;;;;;5060790;28;20040;-76
2023/03/10 00:34:27;;;;;;;2.55;0.40;;;11.30;99.90;;;;;;5061398;28;20036;-76
2023/03/10 00:36:53;;;;;;;1.15;0.30;;;11.20;99.90;;;;;;5059054;28;20037;-76
2023/03/10 00:39:20;;;;;;;2.55;0.85;;;11.20;99.90;;;;;;5060641;28;20049;-76
2023/03/10 00:41:49;;;;;;;1.33;0.50;;;11.20;99.90;;;;;;5061189;28;20041;-77
2023/03/10 00:44:16;;;;;;;1.63;0.45;;;11.20;99.90;;;;;;5056711;28;20056;-76
2023/03/10 00:46:42;;;;;;;1.88;0.40;;;11.30;99.90;;;;;;5062799;28;20148;-76
2023/03/10 00:49:14;;;;;;;2.45;0.40;;;11.20;99.90;;;;;;5061526;28;20047;-76
2023/03/10 00:51:40;;;;;;;1.02;0.30;;;11.30;99.90;;;;;;5058168;28;20041;-76
2023/03/10 00:54:06;;;;;;;2.78;0.60;;;11.20;99.90;;;;;;5065768;28;20474;-76
2023/03/10 00:56:32;;;;;;;1.52;0.40;;;11.20;99.90;;;;;;5063077;28;20028;-76
2023/03/10 00:59:01;;;;;;;2.33;0.60;;;11.10;99.90;;;;;;5066718;28;20032;-76
2023/03/10 01:01:38;;;;;;;1.33;0.35;;;11.10;99.90;;;;;;5063998;28;20378;-76
2023/03/10 01:04:15;;;;;;;0.52;0.30;;;11.00;99.90;;;;;;5061047;28;20033;-76
2023/03/10 01:06:43;;;;;;;0.65;0.22;;;11.00;99.90;;;;;;5063618;28;20473;-77
2023/03/10 01:09:09;;;;;;;1.30;0.30;;;11.00;99.90;;;;;;5064366;28;20032;-76
2023/03/10 01:11:36;;;;;;;0.77;0.40;;;11.00;99.90;;;;;;5062615;28;20025;-76
2023/03/10 01:14:04;;;;;;;0.88;0.40;;;11.00;99.90;;;;;;5059649;28;20044;-76
2023/03/10 01:16:30;;;;;;;1.50;0.40;;;11.00;99.90;;;;;;5066288;28;20033;-77
2023/03/10 01:18:58;;;;;;;2.95;0.65;;;11.00;99.90;;;;;;5063856;28;20052;-76
2023/03/10 01:21:27;;;;;;;3.33;0.52;;;11.00;99.90;;;;;;5063211;28;20033;-76
2023/03/10 01:23:53;;;;;;;1.88;0.40;;;11.00;99.90;;;;;;5062691;28;20040;-76
2023/03/10 01:26:19;;;;;;;2.40;0.63;;;11.00;99.90;;;;;;5062331;28;20052;-77
2023/03/10 01:28:47;;;;;;;1.02;0.40;;;11.00;99.90;;;;;;5063677;28;20466;-76
2023/03/10 01:31:15;;;;;;;2.35;0.50;;;10.90;99.90;;;;;;5058234;28;20047;-76
2023/03/10 01:33:42;;;;;;;1.00;0.40;;;10.90;99.90;;;;;;5057677;28;20044;-76
2023/03/10 01:36:24;;;;;;;1.30;0.40;;;10.90;99.90;;;;;;5066416;28;20033;-76
2023/03/10 01:38:51;;;;;;;1.80;0.20;;;10.90;99.90;;;;;;5060981;28;20036;-77
2023/03/10 01:41:19;;;;;;;1.35;0.43;;;10.80;99.90;;;;;;5066318;28;20048;-77
2023/03/10 01:43:47;;;;;;;0.73;0.32;;;10.80;99.90;;;;;;5061038;28;20044;-75
2023/03/10 01:46:37;;;;;;;0.50;0.30;;;10.80;99.90;;;;;;5063010;28;20049;-75
2023/03/10 01:49:31;;;;;;;0.40;0.22;;;10.80;99.90;;;;;;5063482;28;20048;-76
2023/03/10 01:52:16;;;;;;;2.22;0.38;;;10.80;99.90;;;;;;5060741;28;20045;-76
2023/03/10 01:55:08;;;;;;;1.38;0.35;;;10.70;99.90;;;;;;5061357;28;20047;-76
2023/03/10 01:57:48;;;;;;;0.57;0.32;;;10.70;99.90;;;;;;5050346;28;20041;-77
2023/03/10 02:00:15;;;;;;;2.97;0.40;;;10.70;99.90;;;;;;5053636;28;20054;-76
2023/03/10 02:02:54;;;;;;;;;;;10.60;1.00;;;;;;5037003;28;20041;-77
2023/03/10 02:05:21;;;;;;;3.33;2.13;;;10.60;1.00;;;;;;5064037;28;19916;-76
2023/03/10 02:07:48;;;;;;;2.63;1.23;;;10.60;1.00;;;;;;5062206;28;20032;-76
2023/03/10 02:10:15;;;;;;;2.63;0.90;;;10.60;1.00;;;;;;5064532;28;20052;-77
2023/03/10 02:12:44;;;;;;;3.60;1.00;;;10.50;1.00;;;;;;5057889;28;20052;-75
2023/03/10 02:15:11;;;;;;;1.50;0.50;;;10.50;1.00;;;;;;5065050;28;20352;-74
2023/03/10 02:17:38;;;;;;;2.72;0.30;;;10.50;1.00;;;;;;5065184;28;20036;-76
2023/03/10 02:20:49;;;;;;;5.13;3.03;;;10.50;1.00;;;;;;5060717;28;20060;-75
2023/03/10 02:23:26;;;;;;;6.47;3.42;;;10.40;1.00;;;;;;5045476;28;20037;-75
2023/03/10 02:26:11;;;;;;;2.50;1.08;;;10.40;1.00;;;;;;5064928;28;20037;-75
2023/03/10 02:28:37;;;;;;;2.17;0.80;;;10.40;1.00;;;;;;5067980;28;20039;-75
2023/03/10 02:31:04;;;;;;;2.45;1.00;;;10.30;1.00;;;;;;5065229;28;20051;-74
2023/03/10 02:33:32;;;;;;;2.97;1.50;;;10.40;1.00;;;;;;5051997;28;20044;-75
2023/03/10 02:36:03;;;;;;;1.60;0.80;;;10.30;1.00;;;;;;5056296;28;20037;-75
2023/03/10 02:38:29;;;;;;;0.88;0.30;;;10.30;1.00;;;;;;5063103;28;20037;-75
2023/03/10 02:40:56;;;;;;;1.40;0.52;;;10.30;1.00;;;;;;5053588;28;20404;-74
2023/03/10 02:43:31;;;;;;;0.88;0.30;;;10.30;1.00;;;;;;5060240;28;20052;-74
2023/03/10 02:46:07;;;;;;;1.67;0.30;;;10.30;1.00;;;;;;5060160;28;20397;-74
2023/03/10 02:48:37;;;;;;;1.08;0.45;;;10.30;1.00;;;;;;5078654;28;20044;-74
2023/03/10 02:51:15;;;;;;;1.45;0.38;;;10.30;1.00;;;;;;5074937;28;20045;-75
2023/03/10 02:53:41;;;;;;;1.40;0.30;;;10.30;1.00;;;;;;5058991;28;20036;-75
2023/03/10 02:56:08;;;;;;;0.30;0.20;;;10.20;1.00;;;;;;5074394;28;20040;-74
2023/03/10 02:58:36;;;;;;;1.13;0.30;;;10.20;1.00;;;;;;5062161;28;20036;-74
2023/03/10 03:01:06;;;;;;;0.38;0.20;;;10.20;1.00;;;;;;5078653;28;20045;-74
2023/03/10 03:03:36;;;;;;;3.28;0.75;;;10.20;1.00;;;;;;5065579;28;20037;-74
2023/03/10 03:06:04;;;;;;;0.77;0.40;;;10.20;1.00;;;;;;5055334;28;20044;-75
2023/03/10 03:08:32;;;;;;;1.45;0.40;;;10.10;1.00;;;;;;5074568;28;20045;-74
2023/03/10 03:11:00;;;;;;;2.40;0.30;;;10.20;1.00;;;;;;5060887;28;20060;-75
2023/03/10 03:13:28;;;;;;;0.93;0.30;;;10.10;1.00;;;;;;5075208;28;20056;-75
2023/03/10 03:15:55;;;;;;;1.17;0.28;;;10.20;1.00;;;;;;5078652;28;20044;-75
2023/03/10 03:18:21;;;;;;;3.00;0.40;;;10.20;1.00;;;;;;5056590;28;20041;-75
2023/03/10 03:20:47;;;;;;;0.60;0.30;;;10.10;1.00;;;;;;5062724;28;20052;-74
2023/03/10 03:23:14;;;;;;;0.55;0.30;;;10.10;1.00;;;;;;5062038;28;20036;-75
2023/03/10 03:25:41;;;;;;;0.77;0.35;;;10.10;1.00;;;;;;5075230;28;20400;-75
2023/03/10 03:28:11;;;;;;;0.85;0.40;;;10.10;1.00;;;;;;5052844;28;20044;-74
2023/03/10 03:30:38;;;;;;;1.95;0.50;;;10.10;1.00;;;;;;5073307;28;20037;-74
2023/03/10 03:33:06;;;;;;;4.30;0.82;;;10.00;1.00;;;;;;5051725;28;20116;-74
2023/03/10 03:35:36;;;;;;;0.60;0.30;;;10.00;1.00;;;;;;5061512;28;20036;-75
2023/03/10 03:38:04;;;;;;;1.40;0.50;;;10.00;1.00;;;;;;5058056;28;20051;-74
2023/03/10 03:40:32;;;;;;;1.85;0.43;;;10.00;1.00;;;;;;5060745;28;20527;-74
2023/03/10 03:42:59;;;;;;;1.73;0.55;;;10.10;1.00;;;;;;5057343;28;20757;-74
2023/03/10 03:45:28;;;;;;;3.20;0.60;;;10.00;1.00;;;;;;5045395;28;20050;-74
2023/03/10 03:47:55;;;;;;;2.15;0.55;;;10.00;1.00;;;;;;5054612;28;20393;-75
2023/03/10 03:50:23;;;;;;;2.17;0.60;;;9.90;1.00;;;;;;5061371;28;20048;-74
2023/03/10 03:52:52;;;;;;;1.60;0.50;;;9.90;1.00;;;;;;5050748;28;20053;-74
2023/03/10 03:55:21;;;;;;;1.55;0.50;;;9.90;1.00;;;;;;5053311;28;20052;-75
2023/03/10 03:57:50;;;;;;;2.28;0.50;;;9.90;1.00;;;;;;5059468;28;20052;-75
2023/03/10 04:00:20;;;;;;;3.53;0.70;;;9.90;1.00;;;;;;5062897;28;20036;-73
2023/03/10 04:02:49;;;;;;;1.67;0.70;;;9.90;1.00;;;;;;5047517;28;20045;-74
2023/03/10 04:05:15;;;;;;;1.38;0.43;;;9.90;1.00;;;;;;5062326;28;20450;-75
2023/03/10 04:07:42;;;;;;;1.50;0.40;;;9.90;1.00;;;;;;5057005;28;20044;-75
2023/03/10 04:10:13;;;;;;;1.83;0.60;;;9.90;1.00;;;;;;5051896;28;20040;-76
2023/03/10 04:12:39;;;;;;;1.73;0.57;;;9.90;1.00;;;;;;5053752;28;20467;-77
2023/03/10 04:15:07;;;;;;;1.23;0.60;;;9.90;1.00;;;;;;5058842;28;20049;-75
2023/03/10 04:17:34;;;;;;;1.85;0.60;;;9.80;1.00;;;;;;5058843;28;20052;-76
2023/03/10 04:20:01;;;;;;;2.63;1.10;;;9.80;1.00;;;;;;5063996;28;20450;-75
2023/03/10 04:22:28;;;;;;;7.28;1.50;;;9.70;1.00;;;;;;5068212;28;20048;-76
2023/03/10 04:24:54;;;;;;;1.20;0.60;;;9.70;1.00;;;;;;5055077;28;20048;-76
2023/03/10 04:27:20;;;;;;;1.60;0.85;;;9.60;1.00;;;;;;5064814;28;20036;-75
2023/03/10 04:29:47;;;;;;;2.00;0.90;;;9.60;1.00;;;;;;5064547;28;20041;-76
2023/03/10 04:32:13;;;;;;;2.47;1.00;;;9.50;1.00;;;;;;5067084;28;20029;-76
2023/03/10 04:34:41;;;;;;;5.63;0.85;;;9.40;1.00;;;;;;5054431;28;20036;-76
2023/03/10 04:37:07;;;;;;;1.80;0.88;;;9.30;1.00;;;;;;5064774;28;20040;-76
2023/03/10 04:39:35;;;;;;;2.88;0.80;;;9.30;1.00;;;;;;5081967;28;20513;-76
2023/03/10 04:42:03;;;;;;;3.08;0.82;;;9.20;1.00;;;;;;5063439;28;20071;-76
2023/03/10 04:44:29;;;;;;;2.70;1.02;;;9.20;1.00;;;;;;5064484;28;20401;-75
2023/03/10 04:46:55;;;;;;;5.18;1.02;;;9.20;1.00;;;;;;5053787;28;20049;-76
2023/03/10 04:49:21;;;;;;;3.15;0.95;;;9.10;1.00;;;;;;5065848;28;20048;-76
2023/03/10 04:51:48;;;;;;;4.53;0.73;;;9.10;1.00;;;;;;5051946;28;20049;-76
2023/03/10 04:54:14;;;;;;;2.65;1.10;;;9.00;1.00;;;;;;5063155;28;20044;-76
2023/03/10 04:56:41;;;;;;;4.43;0.88;;;8.90;1.00;;;;;;5065488;28;20044;-76
2023/03/10 04:59:07;;;;;;;1.88;0.50;;;8.90;1.00;;;;;;5063276;28;20036;-76
2023/03/10 05:01:34;;;;;;;2.40;0.80;;;8.90;1.00;;;;;;5065655;28;20057;-76
2023/03/10 05:04:04;;;;;;;2.47;0.90;;;9.00;1.00;;;;;;5062301;28;20128;-76
2023/03/10 05:06:32;;;;;;;4.93;0.77;;;9.00;1.00;;;;;;5064008;28;20052;-76
2023/03/10 05:09:21;;;;;;;4.03;1.33;;;9.00;1.00;;;;;;5059772;28;20040;-76
2023/03/10 05:11:48;;;;;;;4.47;0.63;;;9.00;1.00;;;;;;5080119;28;20084;-76
2023/03/10 05:14:16;;;;;;;2.10;0.85;;;9.10;1.00;;;;;;5061885;28;20056;-75
2023/03/10 05:16:42;;;;;;;2.72;0.90;;;9.10;1.00;;;;;;5066064;28;20465;-76
2023/03/10 05:19:08;;;;;;;3.05;0.90;;;9.10;1.00;;;;;;5063412;28;20393;-76
2023/03/10 05:21:34;;;;;;;2.80;0.90;;;9.10;1.00;;;;;;5062726;28;20032;-76
2023/03/10 05:24:01;;;;;;;1.80;1.13;;;9.10;1.00;;;;;;5061286;28;20037;-76
2023/03/10 05:26:27;;;;;;;1.60;0.85;;;9.20;1.00;;;;;;5064396;28;20044;-75
2023/03/10 05:28:54;;;;;;;3.25;0.82;;;9.20;1.00;;;;;;5061251;28;20072;-76
2023/03/10 05:31:28;;;;;;;3.75;0.85;;;9.20;1.00;;;;;;5064612;28;20435;-75
2023/03/10 05:34:00;;;;;;;2.50;1.10;;;9.10;1.00;;;;;;5061782;28;20041;-76
2023/03/10 05:36:26;;;;;;;1.27;0.70;;;9.10;1.00;;;;;;5054502;28;20490;-74
2023/03/10 05:38:53;;;;;;;1.88;0.60;;;9.20;1.00;;;;;;5055198;28;20037;-75
2023/03/10 05:41:19;;;;;;;3.25;0.85;;;9.20;1.00;;;;;;5059803;28;20049;-75
2023/03/10 05:43:49;;;;;;;3.35;0.70;;;9.30;1.00;;;;;;5061984;28;20052;-76
2023/03/10 05:46:17;;;;;;;3.67;0.93;;;9.40;1.00;;;;;;5063747;28;20049;-75
2023/03/10 05:48:49;;;;;;;2.40;1.20;;;9.40;1.00;;;;;;5054567;28;20389;-75
2023/03/10 05:51:15;;;;;;;7.53;1.67;;;9.50;1.00;;;;;;5052105;28;20045;-75
2023/03/10 05:53:42;;;;;;;3.05;0.98;;;9.50;1.00;;;;;;5061568;28;20060;-75
2023/03/10 05:56:17;;;;;;;1.67;0.60;;;9.50;1.00;;;;;;5063390;28;20377;-75
2023/03/10 05:58:46;;;;;;;5.88;1.90;;;9.50;1.00;;;;;;5053832;28;20041;-78
2023/03/10 06:01:14;;;;;;;3.33;1.50;;;9.60;1.00;;;;;;5054825;28;20057;-75
2023/03/10 06:03:40;;;;;;;2.78;0.57;;;9.60;1.00;;;;;;5065068;28;20033;-76
2023/03/10 06:06:07;;;;;;;1.02;0.50;;;9.60;1.00;;;;;;5060338;28;20025;-74
2023/03/10 06:08:33;;;;;;;1.67;0.80;;;9.60;1.00;;;;;;5064639;28;20041;-75
2023/03/10 06:11:00;;;;;;;3.40;0.73;;;9.60;1.00;;;;;;5058227;28;20040;-75
2023/03/10 06:13:26;;;;;;;4.13;0.73;;;9.70;1.00;;;;;;5064526;28;20040;-75
2023/03/10 06:15:58;;;;;;;5.00;0.80;;;9.70;1.00;;;;;;5059219;28;20055;-75
2023/03/10 06:18:24;;;;;;;3.33;1.20;;;9.80;1.00;;;;;;5060970;28;20025;-74
2023/03/10 06:20:52;;;;;;;1.10;0.60;;;9.80;1.00;;;;;;5064131;28;20394;-74
2023/03/10 06:23:19;;;;;;;3.15;0.85;;;9.80;1.00;;;;;;5060953;28;20032;-76
2023/03/10 06:25:56;;;;;;;3.17;0.85;;;9.70;1.00;;;;;;5057112;28;20041;-75
2023/03/10 06:28:22;;;;;;;2.08;0.90;;;9.80;1.00;;;;;;5064969;28;20040;-75
2023/03/10 06:30:56;;;;;;;2.53;1.00;;;9.80;1.00;;;;;;5061253;28;20489;-76
2023/03/10 06:33:24;;;;;;;7.82;2.58;;;9.90;1.00;;;;;;5064102;28;20043;-75
2023/03/10 06:35:50;;;;;;;2.38;0.77;;;9.80;1.00;;;;;;5057287;28;20026;-75
2023/03/10 06:38:16;;;;;;;3.22;1.42;;;9.80;1.00;;;;;;5064742;28;20033;-75
2023/03/10 06:40:42;;;;;;;6.45;0.93;;;9.80;1.00;;;;;;5064414;28;20486;-75
2023/03/10 06:43:08;;;;;;;1.95;0.73;;;9.90;1.00;;;;;;5061519;28;20049;-73
2023/03/10 06:45:35;;;;;;;5.80;0.90;;;9.90;1.00;;;;;;5063194;28;20044;-75
2023/03/10 06:48:01;;;;;;;2.20;0.80;;;9.90;1.00;;;;;;5059916;28;20041;-74
2023/03/10 06:50:35;;;;;;;4.38;1.10;;;9.90;1.00;;;;;;5074983;28;20041;-73
2023/03/10 06:53:01;;;;;;;3.97;0.70;;;10.00;1.00;;;;;;5063181;28;20033;-74
2023/03/10 06:55:27;;;;;;;2.70;1.02;;;10.00;1.00;;;;;;5059812;28;20040;-75
2023/03/10 06:57:53;;;;;;;1.40;0.60;;;10.10;1.00;;;;;;5062987;28;20040;-75
2023/03/10 07:00:19;;;;;;;4.97;0.88;;;10.20;1.00;;;;;;5061540;28;20033;-75
2023/03/10 07:02:45;;;;;;;3.47;0.82;;;10.30;1.00;;;;;;5062194;28;20036;-76
2023/03/10 07:05:12;;;;;;;7.97;1.17;;;10.50;1.00;;;;;;5060915;28;20035;-75
2023/03/10 07:07:39;;;;;;;7.28;1.27;;;10.70;1.00;;;;;;5062852;28;20051;-76
2023/03/10 07:10:06;;;;;;;2.92;1.33;;;10.70;1.00;;;;;;5062590;28;20228;-76
2023/03/10 07:12:32;;;;;;;3.72;1.05;;;10.70;1.00;;;;;;5062887;28;20039;-73
2023/03/10 07:14:58;;;;;;;4.03;0.77;;;10.80;1.00;;;;;;5060473;28;20040;-74
2023/03/10 07:17:24;;;;;;;1.75;0.70;;;11.20;1.00;;;;;;5064456;28;20039;-75
2023/03/10 07:19:51;;;;;;;5.63;1.05;;;11.10;1.00;;;;;;5062373;28;20067;-75
2023/03/10 07:22:17;;;;;;;2.40;0.90;;;11.10;1.00;;;;;;5059501;28;20390;-73
2023/03/10 07:24:43;;;;;;;4.63;0.80;;;11.10;1.00;;;;;;5062655;28;20055;-74
2023/03/10 07:27:09;;;;;;;3.33;0.85;;;11.00;1.00;;;;;;5062117;28;20587;-74
2023/03/10 07:29:35;;;;;;;8.00;1.23;;;11.00;1.00;;;;;;5062485;28;20036;-73
2023/03/10 07:32:01;;;;;;;4.72;1.50;;;10.90;1.00;;;;;;5059765;28;20041;-74
2023/03/10 07:34:27;;;;;;;5.78;0.98;;;10.90;1.00;;;;;;5057675;28;20332;-73
2023/03/10 07:36:53;;;;;;;4.43;0.90;;;10.80;1.00;;;;;;5063007;28;20040;-75
2023/03/10 07:39:20;;;;;;;2.70;0.90;;;10.90;1.00;;;;;;5064101;28;20032;-74
2023/03/10 07:41:46;;;;;;;3.63;1.30;;;10.90;1.00;;;;;;5059501;28;20064;-74
2023/03/10 07:44:12;;;;;;;3.20;1.25;;;10.80;1.00;;;;;;5061548;28;20057;-74
2023/03/10 07:46:38;;;;;;;2.60;1.33;;;10.80;1.00;;;;;;5060542;28;20037;-73
2023/03/10 07:49:04;;;;;;;7.78;1.50;;;10.70;1.00;;;;;;5063085;28;20037;-74
2023/03/10 07:51:31;;;;;;;4.82;1.63;;;10.70;1.00;;;;;;5063032;28;20040;-74
2023/03/10 07:53:57;;;;;;;7.55;1.77;;;10.60;1.00;;;;;;5062319;28;20386;-74
2023/03/10 07:56:23;;;;;;;5.70;1.85;;;10.60;1.00;;;;;;5062773;28;20029;-75
2023/03/10 07:58:49;;;;;;;7.45;2.22;;;10.60;1.00;;;;;;5061174;28;20024;-76
2023/03/10 08:01:19;;;;;;;7.97;1.60;;;10.50;1.00;;;;;;5076648;28;20041;-75
2023/03/10 08:03:45;;;;;;;5.45;1.30;;;10.50;1.00;;;;;;5061929;28;20036;-74
2023/03/10 08:06:23;;;;;;;6.25;2.63;;;10.40;1.00;;;;;;5073777;28;20465;-74
2023/03/10 08:08:50;;;;;;;9.68;2.00;;;10.30;1.00;;;;;;5056436;28;20033;-75
2023/03/10 08:11:17;;;;;;;6.18;1.90;;;10.20;1.00;;;;;;5061058;28;20047;-74
2023/03/10 08:13:46;;;;;;;6.30;2.20;;;10.00;1.00;;;;;;5061257;28;20036;-73
2023/03/10 08:16:17;;;;;;;30.23;16.42;;;9.80;1.00;;;;;;5060314;28;20104;-73
2023/03/10 08:18:44;;;;;;;12.38;5.85;;;9.60;1.00;;;;;;5073661;28;20041;-77
2023/03/10 08:21:10;;;;;;;20.73;9.52;;;9.50;1.00;;;;;;5062119;28;20266;-77
2023/03/10 08:23:36;;;;;;;9.55;3.95;;;9.50;1.00;;;;;;5061429;28;20032;-76
2023/03/10 08:26:06;;;;;;;9.10;3.88;;;9.40;1.00;;;;;;5052276;28;20041;-74
2023/03/10 08:28:34;;;;;;;7.05;3.17;;;9.40;1.00;;;;;;5040437;28;20033;-75
2023/03/10 08:31:15;;;;;;;25.02;11.23;;;9.30;1.00;;;;;;5052836;28;20032;-75
2023/03/10 08:33:42;;;;;;;41.30;19.35;;;9.20;1.00;;;;;;5048624;28;20037;-75
2023/03/10 08:36:21;;;;;;;19.95;9.02;;;9.30;1.00;;;;;;5047938;28;20028;-76
2023/03/10 08:38:49;;;;;;;7.32;2.65;;;9.30;1.00;;;;;;5052450;28;20044;-74
2023/03/10 08:41:19;;;;;;;10.88;3.22;;;9.40;1.00;;;;;;5052924;28;20478;-75
2023/03/10 08:43:46;;;;;;;5.40;1.60;;;9.50;1.00;;;;;;5054962;28;20401;-76
2023/03/10 08:46:12;;;;;;;9.13;3.13;;;9.60;1.00;;;;;;5060323;28;20056;-75
2023/03/10 08:48:39;;;;;;;20.52;10.40;;;9.60;1.00;;;;;;5061832;28;20033;-75
2023/03/10 08:51:07;;;;;;;10.23;5.25;;;9.60;1.00;;;;;;5050119;28;20041;-75
2023/03/10 08:53:35;;;;;;;8.55;1.10;;;9.70;1.00;;;;;;5062490;28;20032;-74
2023/03/10 08:56:01;;;;;;;23.23;12.98;;;9.70;1.00;;;;;;5059591;28;20036;-75
2023/03/10 08:58:27;;;;;;;9.55;2.10;;;9.70;1.00;;;;;;5061185;28;20033;-74
2023/03/10 09:00:53;;;;;;;5.30;1.63;;;9.70;1.00;;;;;;5062531;28;20401;-75
2023/03/10 09:03:19;;;;;;;9.00;2.58;;;9.60;1.00;;;;;;5053235;28;20037;-75
2023/03/10 09:05:46;;;;;;;3.47;1.42;;;9.70;1.00;;;;;;5060224;28;20040;-74
2023/03/10 09:08:12;;;;;;;5.93;1.10;;;10.20;1.00;;;;;;5060501;28;20052;-73
2023/03/10 09:10:40;;;;;;;8.32;4.40;;;10.20;1.00;;;;;;5077254;28;20036;-74
2023/03/10 09:13:06;;;;;;;7.35;2.47;;;10.30;1.00;;;;;;5056131;28;20458;-74
2023/03/10 09:15:33;;;;;;;7.70;1.35;;;10.50;1.00;;;;;;5064321;28;20048;-74
2023/03/10 09:18:00;;;;;;;3.90;1.38;;;10.70;1.00;;;;;;5065001;28;20036;-74
2023/03/10 09:20:27;;;;;;;5.75;1.33;;;10.70;1.00;;;;;;5064826;28;20028;-75
2023/03/10 09:22:54;;;;;;;9.45;2.75;;;11.10;1.00;;;;;;5064805;28;20047;-74
2023/03/10 09:25:21;;;;;;;7.57;1.77;;;11.70;1.00;;;;;;5061608;28;20028;-74
2023/03/10 09:27:47;;;;;;;4.82;1.60;;;12.00;1.00;;;;;;5064977;28;20025;-73
2023/03/10 09:30:14;;;;;;;6.82;2.03;;;12.30;99.90;;;;;;5064172;28;20021;-73
2023/03/10 09:32:43;;;;;;;4.75;1.23;;;12.70;99.90;;;;;;5080711;28;20149;-74
2023/03/10 09:35:10;;;;;;;3.80;0.93;;;12.70;99.90;;;;;;5055687;28;20389;-75
2023/03/10 09:37:37;;;;;;;2.90;0.82;;;12.10;99.90;;;;;;5055860;28;20029;-74
2023/03/10 09:40:04;;;;;;;1.73;0.77;;;11.70;99.90;;;;;;5063165;28;20039;-75
2023/03/10 09:42:46;;;;;;;4.53;0.88;;;11.30;99.90;;;;;;5056699;28;20048;-75
2023/03/10 09:45:47;;;;;;;5.55;1.90;;;11.00;1.00;;;;;;5058266;28;20468;-74
2023/03/10 09:48:40;;;;;;;3.78;1.25;;;10.80;1.00;;;;;;5062680;28;20335;-75
2023/03/10 09:51:23;;;;;;;2.83;1.75;;;10.60;1.00;;;;;;5056067;28;20028;-74
2023/03/10 09:54:23;;;;;;;4.50;1.35;;;10.50;1.00;;;;;;5057478;28;20044;-74
2023/03/10 09:56:50;;;;;;;4.35;0.82;;;10.50;1.00;;;;;;5059090;28;20024;-75
2023/03/10 09:59:30;;;;;;;4.72;0.98;;;10.60;1.00;;;;;;5061199;28;20024;-75
2023/03/10 10:02:02;;;;;;;3.05;0.70;;;10.80;1.00;;;;;;5055574;28;20029;-74
2023/03/10 10:04:36;;;;;;;4.45;0.82;;;11.00;1.00;;;;;;5058024;28;20040;-74
2023/03/10 10:07:12;;;;;;;6.63;1.77;;;11.00;1.00;;;;;;5056829;28;20033;-75
2023/03/10 10:09:47;;;;;;;5.30;1.40;;;10.90;1.00;;;;;;5049856;28;20044;-74
2023/03/10 10:12:16;;;;;;;2.78;1.02;;;10.80;1.00;;;;;;5057830;28;20108;-75
2023/03/10 10:14:44;;;;;;;3.22;0.98;;;10.80;1.00;;;;;;5062054;28;20033;-74
2023/03/10 10:17:49;;;;;;;3.42;0.80;;;10.80;1.00;;;;;;5054981;28;20021;-74
2023/03/10 10:20:22;;;;;;;3.78;1.50;;;10.80;1.00;;;;;;5054413;28;20032;-74
2023/03/10 10:22:48;;;;;;;5.07;0.98;;;10.90;1.00;;;;;;5056420;28;20037;-75
2023/03/10 10:25:23;;;;;;;3.30;1.05;;;10.90;1.00;;;;;;5054647;28;20032;-75
2023/03/10 10:27:57;;;;;;;3.65;1.27;;;10.90;1.00;;;;;;5062788;28;20043;-76
2023/03/10 10:30:34;;;;;;;2.97;1.17;;;10.90;1.00;;;;;;5060264;28;20037;-77
2023/03/10 10:33:11;;;;;;;6.70;1.02;;;10.90;1.00;;;;;;5058937;28;20028;-75
2023/03/10 10:35:59;;;;;;;4.05;0.90;;;10.90;1.00;;;;;;5058575;28;20481;-74
2023/03/10 10:38:29;;;;;;;4.32;0.93;;;10.90;1.00;;;;;;5055483;28;20397;-74
2023/03/10 10:41:15;;;;;;;5.63;1.70;;;10.80;1.00;;;;;;5059556;28;20036;-76
2023/03/10 10:43:43;;;;;;;6.70;3.47;;;10.90;1.00;;;;;;5058309;28;20053;-75
2023/03/10 10:46:16;;;;;;;3.53;1.05;;;10.90;1.00;;;;;;5063276;28;20033;-75
2023/03/10 10:48:47;;;;;;;7.75;1.95;;;10.90;1.00;;;;;;5057010;28;20025;-74
2023/03/10 10:51:29;;;;;;;6.53;1.90;;;10.90;1.00;;;;;;5063902;28;20052;-74
2023/03/10 10:53:57;;;;;;;9.57;3.40;;;10.90;1.00;;;;;;5062636;28;20025;-76
2023/03/10 10:56:27;;;;;;;4.90;1.02;;;11.00;1.00;;;;;;5063034;28;20033;-75
2023/03/10 10:59:04;;;;;;;5.00;1.92;;;10.80;1.00;;;;;;5062037;28;20036;-74
2023/03/10 11:01:58;;;;;;;5.95;1.52;;;10.90;1.00;;;;;;5059397;28;20052;-74
2023/03/10 11:04:26;;;;;;;15.30;4.82;;;10.90;1.00;;;;;;5058352;28;20029;-74
2023/03/10 11:07:18;;;;;;;4.72;1.58;;;10.90;1.00;;;;;;5060907;28;20482;-75
2023/03/10 11:09:46;;;;;;;4.13;0.90;;;11.00;1.00;;;;;;5055564;28;20055;-75
2023/03/10 11:12:46;;;;;;;5.78;1.83;;;11.10;1.00;;;;;;5060932;28;20063;-74
2023/03/10 11:15:40;;;;;;;6.20;1.02;;;11.20;1.00;;;;;;5063355;28;20055;-74
2023/03/10 11:18:30;;;;;;;7.38;0.85;;;11.30;99.90;;;;;;5060005;28;20051;-74
2023/03/10 11:21:15;;;;;;;3.30;0.80;;;11.30;99.90;;;;;;5058913;28;20029;-74
2023/03/10 11:24:06;;;;;;;0.82;0.50;;;11.10;99.90;;;;;;5059930;28;20040;-74
2023/03/10 11:26:56;;;;;;;2.55;1.48;;;11.20;99.90;;;;;;5062624;28;20029;-75
2023/03/10 11:29:41;;;;;;;6.17;0.50;;;11.10;99.90;;;;;;5057959;28;20032;-74
2023/03/10 11:32:31;;;;;;;4.03;0.60;;;11.20;99.90;;;;;;5059790;28;20705;-75
2023/03/10 11:35:11;;;;;;;1.47;0.53;;;11.10;99.90;;;;;;5056504;28;20029;-76
2023/03/10 11:37:51;;;;;;;3.33;0.90;;;11.10;99.90;;;;;;5053203;28;20041;-74
2023/03/10 11:40:46;;;;;;;1.85;0.80;;;11.10;99.90;;;;;;5054553;28;20496;-74
2023/03/10 11:43:37;;;;;;;3.10;0.98;;;11.00;99.90;;;;;;5053190;28;20064;-74
2023/03/10 11:46:15;;;;;;;3.83;0.90;;;11.00;99.90;;;;;;5062380;28;20040;-75
2023/03/10 11:49:08;;;;;;;6.53;2.08;;;11.00;99.90;;;;;;5058043;28;20033;-74
2023/03/10 11:51:43;;;;;;;4.43;1.25;;;10.90;99.90;;;;;;5050344;28;20044;-75
2023/03/10 11:54:34;;;;;;;6.57;1.13;;;10.80;99.90;;;;;;5059126;28;20044;-75
2023/03/10 11:57:09;;;;;;;2.85;0.70;;;10.80;1.00;;;;;;5058895;28;20056;-76
2023/03/10 11:59:46;;;;;;;3.03;0.70;;;10.80;1.00;;;;;;5059820;28;20033;-75
2023/03/10 12:02:33;;;;;;;2.65;1.02;;;10.70;1.00;;;;;;5043360;28;20033;-75
2023/03/10 12:05:09;;;;;;;2.95;0.77;;;10.60;1.00;;;;;;5067295;28;20498;-75
2023/03/10 12:07:45;;;;;;;8.05;3.08;;;10.60;1.00;;;;;;5055799;28;20032;-75
2023/03/10 12:10:11;;;;;;;3.75;1.30;;;10.50;1.00;;;;;;5053460;28;20331;-75
2023/03/10 12:12:46;;;;;;;4.82;1.67;;;10.40;1.00;;;;;;5054622;28;20040;-75
2023/03/10 12:15:31;;;;;;;4.72;1.30;;;10.40;1.00;;;;;;5052071;28;20037;-75
2023/03/10 12:18:02;;;;;;;2.47;1.40;;;10.40;1.00;;;;;;5053899;28;20029;-75
2023/03/10 12:20:30;;;;;;;2.03;1.15;;;10.50;1.00;;;;;;5054658;28;20040;-74
2023/03/10 12:23:10;;;;;;;1.83;1.08;;;10.50;1.00;;;;;;5066237;28;20446;-75
2023/03/10 12:25:37;;;;;;;1.63;0.90;;;10.50;1.00;;;;;;5059352;28;20052;-74
2023/03/10 12:28:23;;;;;;;1.88;0.63;;;10.40;1.00;;;;;;5061608;28;20055;-76
2023/03/10 12:30:57;;;;;;;2.45;1.33;;;10.40;1.00;;;;;;5057134;28;20037;-75
2023/03/10 12:33:41;;;;;;;3.72;0.93;;;10.40;1.00;;;;;;5056301;28;20036;-75
2023/03/10 12:36:30;;;;;;;3.63;0.73;;;10.30;1.00;;;;;;5056193;28;20044;-75
2023/03/10 12:39:17;;;;;;;3.55;1.17;;;10.30;1.00;;;;;;5061243;28;20040;-74
2023/03/10 12:41:46;;;;;;;4.20;1.35;;;10.20;1.00;;;;;;5054596;28;20504;-74
2023/03/10 12:44:33;;;;;;;4.25;2.28;;;10.10;1.00;;;;;;5060692;28;20371;-74
2023/03/10 12:47:14;;;;;;;2.10;0.75;;;10.00;1.00;;;;;;5061960;28;20036;-74
2023/03/10 12:49:40;;;;;;;2.45;0.70;;;10.00;1.00;;;;;;5057005;28;20055;-74
2023/03/10 12:52:23;;;;;;;3.13;1.10;;;9.90;1.00;;;;;;5064967;28;20036;-73
2023/03/10 12:55:15;;;;;;;1.45;0.88;;;9.90;1.00;;;;;;5059001;28;20032;-73
2023/03/10 12:58:10;;;;;;;1.75;0.70;;;10.00;1.00;;;;;;5062310;28;20401;-75
2023/03/10 13:00:45;;;;;;;1.95;0.65;;;10.00;1.00;;;;;;5066093;28;20044;-73
2023/03/10 13:03:34;;;;;;;2.10;0.63;;;10.00;1.00;;;;;;5057148;28;20030;-74
2023/03/10 13:06:05;;;;;;;1.95;0.80;;;10.00;1.00;;;;;;5063079;28;20458;-74
2023/03/10 13:08:54;;;;;;;2.75;1.05;;;10.00;1.00;;;;;;5066489;28;20521;-76
2023/03/10 13:11:29;;;;;;;1.33;0.60;;;10.00;1.00;;;;;;5056035;28;20043;-74
2023/03/10 13:14:08;;;;;;;2.55;0.57;;;10.00;1.00;;;;;;5065651;28;20040;-73
2023/03/10 13:16:35;;;;;;;1.10;0.30;;;9.90;1.00;;;;;;5062138;28;20392;-74
2023/03/10 13:19:02;;;;;;;0.77;0.30;;;9.80;1.00;;;;;;5060885;28;20338;-74